createdAt,value
2023-04-08T00:00:25.424Z,11.55
2023-04-08T00:02:57.683Z,12.50
2023-04-08T00:05:30.106Z,14.05
2023-04-08T00:08:02.293Z,13.43
2023-04-08T00:10:34.502Z,12.43
2023-04-08T00:13:06.981Z,11.82
2023-04-08T00:15:39.110Z,13.43
2023-04-08T00:18:14.346Z,13.65
2023-04-08T00:20:47.607Z,12.07
2023-04-08T00:23:21.419Z,13.00
2023-04-08T00:25:53.591Z,13.73
2023-04-08T00:28:25.775Z,14.80
2023-04-08T00:30:58.259Z,14.00
2023-04-08T00:33:30.456Z,14.50
2023-04-08T00:36:03.470Z,12.27
2023-04-08T00:38:35.800Z,13.18
2023-04-08T00:41:07.952Z,12.60
2023-04-08T00:43:40.260Z,13.10
2023-04-08T00:46:13.119Z,11.73
2023-04-08T00:48:45.485Z,11.93
2023-04-08T00:51:18.010Z,13.32
2023-04-08T00:53:50.446Z,15.02
2023-04-08T00:56:23.939Z,13.07
2023-04-08T00:58:57.550Z,13.90
2023-04-08T01:01:31.053Z,13.27
2023-04-08T01:04:40.564Z,13.07
2023-04-08T01:07:37.182Z,13.70
2023-04-08T01:10:23.320Z,14.07
2023-04-08T01:13:05.970Z,13.50
2023-04-08T01:15:42.677Z,13.90
2023-04-08T01:18:17.356Z,13.60
2023-04-08T01:20:51.499Z,14.88
2023-04-08T01:23:54.740Z,14.13
2023-04-08T01:26:47.527Z,14.68
2023-04-08T01:29:20.840Z,13.73
2023-04-08T01:31:55.536Z,13.77
2023-04-08T01:34:29.742Z,14.85
2023-04-08T01:37:03.015Z,15.10
2023-04-08T01:39:36.619Z,16.05
2023-04-08T01:42:10.954Z,14.48
2023-04-08T01:44:43.913Z,16.13
2023-04-08T01:47:16.739Z,15.90
2023-04-08T01:49:51.051Z,14.27
2023-04-08T01:52:25.764Z,15.52
2023-04-08T01:54:59.913Z,14.80
2023-04-08T01:57:35.237Z,15.98
2023-04-08T02:00:12.262Z,14.82
2023-04-08T02:02:47.362Z,15.75
2023-04-08T02:05:20.705Z,16.70
2023-04-08T02:07:52.894Z,16.20
2023-04-08T02:10:25.104Z,16.50
2023-04-08T02:12:57.715Z,16.23
2023-04-08T02:15:34.892Z,14.98
2023-04-08T02:18:28.372Z,17.58
2023-04-08T02:21:12.812Z,15.75
2023-04-08T02:23:50.228Z,16.75
2023-04-08T02:26:24.585Z,17.92
2023-04-08T02:28:57.766Z,15.50
2023-04-08T02:31:30.333Z,16.08
2023-04-08T02:34:05.524Z,16.15
2023-04-08T02:36:41.112Z,16.63
2023-04-08T02:39:17.340Z,16.13
2023-04-08T02:41:49.397Z,14.45
2023-04-08T02:44:21.809Z,16.05
2023-04-08T02:46:53.841Z,16.70
2023-04-08T02:49:26.741Z,16.55
2023-04-08T02:51:58.877Z,18.40
2023-04-08T02:54:31.484Z,15.88
2023-04-08T02:57:03.744Z,16.02
2023-04-08T02:59:37.828Z,17.98
2023-04-08T03:02:11.776Z,16.67
2023-04-08T03:04:43.917Z,19.58
2023-04-08T03:07:16.315Z,15.68
2023-04-08T03:09:48.504Z,18.80
2023-04-08T03:12:21.894Z,19.27
2023-04-08T03:14:54.536Z,17.48
2023-04-08T03:17:26.806Z,20.58
2023-04-08T03:19:59.080Z,18.90
2023-04-08T03:22:32.174Z,19.35
2023-04-08T03:25:05.013Z,20.60
2023-04-08T03:27:37.507Z,18.98
2023-04-08T03:30:10.184Z,17.38
2023-04-08T03:32:42.582Z,17.83
2023-04-08T03:35:14.749Z,20.83
2023-04-08T03:37:47.132Z,20.38
2023-04-08T03:40:19.635Z,17.70
2023-04-08T03:42:51.808Z,18.60
2023-04-08T03:45:23.996Z,20.20
2023-04-08T03:47:56.042Z,21.73
2023-04-08T03:50:28.182Z,19.88
2023-04-08T03:53:00.390Z,18.85
2023-04-08T03:55:32.545Z,17.45
2023-04-08T03:58:04.787Z,22.80
2023-04-08T04:00:37.405Z,19.58
2023-04-08T04:03:13.044Z,17.20
2023-04-08T04:05:45.634Z,18.30
2023-04-08T04:08:18.527Z,21.80
2023-04-08T04:10:51.764Z,21.33
2023-04-08T04:13:24.215Z,22.48
2023-04-08T04:15:57.656Z,18.85
2023-04-08T04:18:29.760Z,21.45
2023-04-08T04:21:06.390Z,20.20
2023-04-08T04:24:36.709Z,23.08
2023-04-08T04:27:09.883Z,18.67
2023-04-08T04:29:42.540Z,22.17
2023-04-08T04:32:15.051Z,23.02
2023-04-08T04:34:47.279Z,21.38
2023-04-08T04:37:19.278Z,20.67
2023-04-08T04:39:51.938Z,23.33
2023-04-08T04:42:23.953Z,19.77
2023-04-08T04:44:56.202Z,19.80
2023-04-08T04:47:28.486Z,21.80
2023-04-08T04:50:03.486Z,20.40
2023-04-08T04:52:37.159Z,20.15
2023-04-08T04:55:09.706Z,19.02
2023-04-08T04:57:41.991Z,19.65
2023-04-08T05:00:16.396Z,24.00
2023-04-08T05:02:48.707Z,19.98
2023-04-08T05:05:21.119Z,21.73
2023-04-08T05:07:53.858Z,22.20
2023-04-08T05:10:26.046Z,21.83
2023-04-08T05:12:58.295Z,21.65
2023-04-08T05:15:30.308Z,22.73
2023-04-08T05:18:03.044Z,23.65
2023-04-08T05:20:35.607Z,25.02
2023-04-08T05:23:08.147Z,22.80
2023-04-08T05:25:40.276Z,21.33
2023-04-08T05:28:12.389Z,20.52
2023-04-08T05:30:52.228Z,21.60
2023-04-08T05:33:26.604Z,24.40
2023-04-08T05:35:58.695Z,22.50
2023-04-08T05:38:30.961Z,19.65
2023-04-08T05:41:03.222Z,23.73
2023-04-08T05:43:36.134Z,23.88
2023-04-08T05:46:09.393Z,25.02
2023-04-08T05:48:42.037Z,21.38
2023-04-08T05:51:15.592Z,21.80
2023-04-08T05:53:48.911Z,24.67
2023-04-08T05:56:21.118Z,22.38
2023-04-08T05:58:53.301Z,25.35
2023-04-08T06:01:26.300Z,26.17
2023-04-08T06:03:58.561Z,23.45
2023-04-08T06:06:30.854Z,24.60
2023-04-08T06:09:02.859Z,29.10
2023-04-08T06:11:34.909Z,27.48
2023-04-08T06:14:06.991Z,24.15
2023-04-08T06:16:39.273Z,22.30
2023-04-08T06:19:11.942Z,22.75
2023-04-08T06:21:43.982Z,22.15
2023-04-08T06:24:16.098Z,24.67
2023-04-08T06:26:48.334Z,22.55
2023-04-08T06:29:22.028Z,22.70
2023-04-08T06:31:54.709Z,21.58
2023-04-08T06:34:27.213Z,22.85
2023-04-08T06:36:59.223Z,21.48
2023-04-08T06:39:31.740Z,26.02
2023-04-08T06:42:04.345Z,23.98
2023-04-08T06:44:37.190Z,26.08
2023-04-08T06:47:09.345Z,21.88
2023-04-08T06:49:41.469Z,24.15
2023-04-08T06:52:15.152Z,24.40
2023-04-08T06:54:47.866Z,23.02
2023-04-08T06:57:20.150Z,24.40
2023-04-08T06:59:53.548Z,24.10
2023-04-08T07:02:25.757Z,27.40
2023-04-08T07:04:59.019Z,22.42
2023-04-08T07:07:31.506Z,20.92
2023-04-08T07:10:03.660Z,20.20
2023-04-08T07:12:36.489Z,20.92
2023-04-08T07:15:11.378Z,23.50
2023-04-08T07:17:43.456Z,22.85
2023-04-08T07:20:15.762Z,20.42
2023-04-08T07:22:47.839Z,18.30
2023-04-08T07:25:20.463Z,19.98
2023-04-08T07:27:52.994Z,19.95
2023-04-08T07:30:25.238Z,20.77
2023-04-08T07:33:00.045Z,17.67
2023-04-08T07:35:34.021Z,16.50
2023-04-08T07:38:11.619Z,17.08
2023-04-08T07:40:44.250Z,17.13
2023-04-08T07:43:16.446Z,18.48
2023-04-08T07:45:48.748Z,17.10
2023-04-08T07:48:20.896Z,18.08
2023-04-08T07:51:08.735Z,17.52
2023-04-08T07:53:43.046Z,16.58
2023-04-08T07:56:16.336Z,15.93
2023-04-08T07:58:53.543Z,16.10
2023-04-08T08:01:27.862Z,16.35
2023-04-08T08:04:03.509Z,18.00
2023-04-08T08:06:36.121Z,15.15
2023-04-08T08:09:08.164Z,15.32
2023-04-08T08:11:40.887Z,16.67
2023-04-08T08:14:14.646Z,17.08
2023-04-08T08:16:47.402Z,16.35
2023-04-08T08:19:21.386Z,15.38
2023-04-08T08:21:53.599Z,15.73
2023-04-08T08:24:26.070Z,15.45
2023-04-08T08:26:58.554Z,13.80
2023-04-08T08:29:30.794Z,14.82
2023-04-08T08:32:03.889Z,15.30
2023-04-08T08:34:36.265Z,14.63
2023-04-08T08:37:09.315Z,15.27
2023-04-08T08:39:41.417Z,15.20
2023-04-08T08:42:24.243Z,14.93
2023-04-08T08:44:57.079Z,14.80
2023-04-08T08:47:33.009Z,14.35
2023-04-08T08:50:05.702Z,14.35
2023-04-08T08:52:38.137Z,14.10
2023-04-08T08:55:27.011Z,14.85
2023-04-08T08:58:03.652Z,14.93
2023-04-08T09:00:42.534Z,15.27
2023-04-08T09:03:29.003Z,14.70
2023-04-08T09:06:03.946Z,14.35
2023-04-08T09:08:37.858Z,13.18
2023-04-08T09:11:17.448Z,13.60
2023-04-08T09:13:51.001Z,15.80
2023-04-08T09:16:24.072Z,14.50
2023-04-08T09:19:10.970Z,13.88
2023-04-08T09:21:43.778Z,14.40
2023-04-08T09:24:32.046Z,13.45
2023-04-08T09:27:05.730Z,14.43
2023-04-08T09:29:39.938Z,14.18
2023-04-08T09:32:12.497Z,14.13
2023-04-08T09:34:44.522Z,13.60
2023-04-08T09:37:17.124Z,14.48
2023-04-08T09:39:49.235Z,15.13
2023-04-08T09:42:22.486Z,14.43
2023-04-08T09:44:55.972Z,13.40
2023-04-08T09:47:34.376Z,14.15
2023-04-08T09:50:15.625Z,14.70
2023-04-08T09:52:55.120Z,14.80
2023-04-08T09:55:36.261Z,12.82
2023-04-08T09:58:24.516Z,13.88
2023-04-08T10:01:00.916Z,14.52
2023-04-08T10:03:45.726Z,13.73
2023-04-08T10:06:22.504Z,14.00
2023-04-08T10:08:59.919Z,14.10
2023-04-08T10:11:33.564Z,14.68
2023-04-08T10:14:06.214Z,14.95
2023-04-08T10:16:40.307Z,15.27
2023-04-08T10:19:41.360Z,14.52
2023-04-08T10:22:29.103Z,13.98
2023-04-08T10:25:18.377Z,14.73
2023-04-08T10:28:18.107Z,13.30
2023-04-08T10:30:58.732Z,13.25
2023-04-08T10:33:30.710Z,14.50
2023-04-08T10:36:08.564Z,13.50
2023-04-08T10:38:43.014Z,12.52
2023-04-08T10:41:24.766Z,12.27
2023-04-08T10:43:57.994Z,13.40
2023-04-08T10:46:37.769Z,12.70
2023-04-08T10:49:09.936Z,13.02
2023-04-08T10:51:44.023Z,20.33
2023-04-08T10:54:18.752Z,13.68
2023-04-08T10:56:52.545Z,13.70
2023-04-08T10:59:30.807Z,14.52
2023-04-08T11:02:04.125Z,13.82
2023-04-08T11:04:42.871Z,14.10
2023-04-08T11:07:16.191Z,13.10
2023-04-08T11:09:51.107Z,12.32
2023-04-08T11:12:23.610Z,15.18
2023-04-08T11:14:57.454Z,15.90
2023-04-08T11:17:30.367Z,13.57
2023-04-08T11:20:06.729Z,11.75
2023-04-08T11:22:40.562Z,13.27
2023-04-08T11:25:12.813Z,13.82
2023-04-08T11:27:45.336Z,13.10
2023-04-08T11:30:19.864Z,12.70
2023-04-08T11:32:54.255Z,12.30
2023-04-08T11:35:31.150Z,13.02
2023-04-08T11:38:05.398Z,13.48
2023-04-08T11:40:39.024Z,13.93
2023-04-08T11:43:19.899Z,14.52
2023-04-08T11:45:55.169Z,14.82
2023-04-08T11:48:28.917Z,13.73
2023-04-08T11:51:09.276Z,14.02
2023-04-08T11:53:48.011Z,12.73
2023-04-08T11:56:23.374Z,12.88
2023-04-08T11:58:56.217Z,13.48
2023-04-08T12:01:28.296Z,12.70
2023-04-08T12:04:02.392Z,13.32
2023-04-08T12:06:35.809Z,14.43
2023-04-08T12:09:08.079Z,13.45
2023-04-08T12:11:40.271Z,13.27
2023-04-08T12:14:12.436Z,13.32
2023-04-08T12:16:45.188Z,13.23
2023-04-08T12:19:17.477Z,12.98
2023-04-08T12:21:49.711Z,14.35
2023-04-08T12:24:22.250Z,12.73
2023-04-08T12:26:54.843Z,12.80
2023-04-08T12:29:27.821Z,13.00
2023-04-08T12:32:00.495Z,13.43
2023-04-08T12:34:33.304Z,14.13
2023-04-08T12:37:06.008Z,14.05
2023-04-08T12:39:38.348Z,13.18
2023-04-08T12:42:10.626Z,13.88
2023-04-08T12:44:42.677Z,14.95
2023-04-08T12:47:14.850Z,12.43
2023-04-08T12:49:49.718Z,12.75
2023-04-08T12:52:22.925Z,13.85
2023-04-08T12:54:55.394Z,12.68
2023-04-08T12:57:28.554Z,13.80
2023-04-08T13:00:00.808Z,13.23
2023-04-08T13:02:33.059Z,13.48
2023-04-08T13:05:05.543Z,14.75
2023-04-08T13:07:37.764Z,12.02
2023-04-08T13:10:10.236Z,12.43
2023-04-08T13:12:42.607Z,13.98
2023-04-08T13:15:14.700Z,13.93
2023-04-08T13:17:47.331Z,12.60
2023-04-08T13:20:19.794Z,12.73
2023-04-08T13:22:56.184Z,14.10
2023-04-08T13:25:28.890Z,11.88
2023-04-08T13:28:01.787Z,12.27
2023-04-08T13:30:34.772Z,13.48
2023-04-08T13:33:07.202Z,14.05
2023-04-08T13:35:39.511Z,12.65
2023-04-08T13:38:12.879Z,11.98
2023-04-08T13:40:46.296Z,12.57
2023-04-08T13:43:19.273Z,13.57
2023-04-08T13:45:51.539Z,13.55
2023-04-08T13:48:23.784Z,14.55
2023-04-08T13:50:55.700Z,13.10
2023-04-08T13:53:27.794Z,13.00
2023-04-08T13:56:00.064Z,13.43
2023-04-08T13:58:32.281Z,13.02
2023-04-08T14:01:04.571Z,13.35
2023-04-08T14:03:37.310Z,12.55
2023-04-08T14:06:09.475Z,13.90
2023-04-08T14:08:41.806Z,13.07
2023-04-08T14:11:13.909Z,14.23
2023-04-08T14:13:46.134Z,12.40
2023-04-08T14:16:18.526Z,12.40
2023-04-08T14:18:51.091Z,12.20
2023-04-08T14:21:23.968Z,13.18
2023-04-08T14:23:57.126Z,12.25
2023-04-08T14:26:29.429Z,12.73
2023-04-08T14:29:05.620Z,12.40
2023-04-08T14:31:38.189Z,11.77
2023-04-08T14:34:10.710Z,12.63
2023-04-08T14:36:42.876Z,12.60
2023-04-08T14:39:16.820Z,11.20
2023-04-08T14:41:49.136Z,12.18
2023-04-08T14:44:21.887Z,11.60
2023-04-08T14:46:54.437Z,10.60
2023-04-08T14:49:26.898Z,11.50
2023-04-08T14:51:59.178Z,11.02
2023-04-08T14:54:31.588Z,10.43
2023-04-08T14:57:03.763Z,11.82
2023-04-08T14:59:35.906Z,10.05
2023-04-08T15:02:08.085Z,11.07
2023-04-08T15:04:40.625Z,9.43
2023-04-08T15:07:13.266Z,8.77
2023-04-08T15:09:45.646Z,8.93
2023-04-08T15:12:17.854Z,8.20
2023-04-08T15:14:49.956Z,9.18
2023-04-08T15:17:22.309Z,8.52
2023-04-08T15:19:58.842Z,7.65
2023-04-08T15:22:35.952Z,7.35
2023-04-08T15:25:08.914Z,7.78
2023-04-08T15:27:42.595Z,8.27
2023-04-08T15:30:15.495Z,6.72
2023-04-08T15:32:48.249Z,7.68
2023-04-08T15:35:21.558Z,6.57
2023-04-08T15:37:53.756Z,7.43
2023-04-08T15:40:26.262Z,6.43
2023-04-08T15:42:58.434Z,7.60
2023-04-08T15:45:30.742Z,7.50
2023-04-08T15:48:05.035Z,7.90
2023-04-08T15:50:38.065Z,7.10
2023-04-08T15:53:10.860Z,7.50
2023-04-08T15:55:43.713Z,6.85
2023-04-08T15:58:16.544Z,8.45
2023-04-08T16:00:48.745Z,7.55
2023-04-08T16:03:23.230Z,7.80
2023-04-08T16:05:55.435Z,7.15
2023-04-08T16:08:28.286Z,8.23
2023-04-08T16:11:03.100Z,8.10
2023-04-08T16:13:39.235Z,7.80
2023-04-08T16:16:13.210Z,8.07
2023-04-08T16:18:47.437Z,7.90
2023-04-08T16:21:20.067Z,8.57
2023-04-08T16:23:52.809Z,7.25
2023-04-08T16:26:29.796Z,7.07
2023-04-08T16:29:02.003Z,7.03
2023-04-08T16:31:34.580Z,6.68
2023-04-08T16:34:07.818Z,7.18
2023-04-08T16:36:40.124Z,6.75
2023-04-08T16:39:13.548Z,7.13
2023-04-08T16:41:46.060Z,7.22
2023-04-08T16:44:18.990Z,6.85
2023-04-08T16:46:51.507Z,6.78
2023-04-08T16:49:23.719Z,6.28
2023-04-08T16:51:56.389Z,7.85
2023-04-08T16:54:28.801Z,7.00
2023-04-08T16:57:00.929Z,7.10
2023-04-08T16:59:33.696Z,6.70
2023-04-08T17:02:06.654Z,8.32
2023-04-08T17:04:39.007Z,6.88
2023-04-08T17:07:14.484Z,7.47
2023-04-08T17:09:51.942Z,7.28
2023-04-08T17:12:24.217Z,8.50
2023-04-08T17:14:57.002Z,7.28
2023-04-08T17:17:29.358Z,7.72
2023-04-08T17:20:01.490Z,7.72
2023-04-08T17:22:34.035Z,6.70
2023-04-08T17:25:07.190Z,7.20
2023-04-08T17:27:39.848Z,7.45
2023-04-08T17:30:12.218Z,7.15
2023-04-08T17:32:44.499Z,7.93
2023-04-08T17:35:17.292Z,7.10
2023-04-08T17:37:55.161Z,6.15
2023-04-08T17:40:29.138Z,8.00
2023-04-08T17:43:01.760Z,7.47
2023-04-08T17:45:34.205Z,7.10
2023-04-08T17:48:09.351Z,6.97
2023-04-08T17:50:41.940Z,7.45
2023-04-08T17:53:17.463Z,7.72
2023-04-08T17:55:49.682Z,6.63
2023-04-08T17:58:22.902Z,8.55
2023-04-08T18:00:55.862Z,7.20
2023-04-08T18:03:31.064Z,7.72
2023-04-08T18:06:10.447Z,7.65
2023-04-08T18:08:42.727Z,7.95
2023-04-08T18:11:18.488Z,7.88
2023-04-08T18:13:52.532Z,8.57
2023-04-08T18:16:28.347Z,8.50
2023-04-08T18:19:03.174Z,7.65
2023-04-08T18:21:37.826Z,8.27
2023-04-08T18:24:10.042Z,7.63
2023-04-08T18:26:43.839Z,8.32
2023-04-08T18:29:17.934Z,9.23
2023-04-08T18:31:50.530Z,8.88
2023-04-08T18:34:23.784Z,9.73
2023-04-08T18:36:58.022Z,8.55
2023-04-08T18:39:32.005Z,9.38
2023-04-08T18:42:04.645Z,8.27
2023-04-08T18:44:37.295Z,9.50
2023-04-08T18:47:10.185Z,7.93
2023-04-08T18:49:42.853Z,8.43
2023-04-08T18:52:15.346Z,9.43
2023-04-08T18:54:49.225Z,9.00
2023-04-08T18:57:22.113Z,8.63
2023-04-08T18:59:59.621Z,9.60
2023-04-08T19:02:33.168Z,9.75
2023-04-08T19:05:06.758Z,9.32
2023-04-08T19:07:39.983Z,9.93
2023-04-08T19:10:12.786Z,9.20
2023-04-08T19:12:45.091Z,9.13
2023-04-08T19:15:18.527Z,8.93
2023-04-08T19:17:57.219Z,9.85
2023-04-08T19:20:30.298Z,8.88
2023-04-08T19:23:03.602Z,9.68
2023-04-08T19:25:36.905Z,10.45
2023-04-08T19:28:09.732Z,9.25
2023-04-08T19:30:44.333Z,9.30
2023-04-08T19:33:17.409Z,9.82
2023-04-08T19:35:49.842Z,9.13
2023-04-08T19:38:22.772Z,10.20
2023-04-08T19:40:55.332Z,9.80
2023-04-08T19:43:28.034Z,10.30
2023-04-08T19:46:02.621Z,10.85
2023-04-08T19:48:35.161Z,10.48
2023-04-08T19:51:07.815Z,9.75
2023-04-08T19:53:45.872Z,9.57
2023-04-08T19:56:18.218Z,10.52
2023-04-08T19:58:51.974Z,11.32
2023-04-08T20:01:25.627Z,10.70
2023-04-08T20:03:58.446Z,10.60
2023-04-08T20:06:32.013Z,10.90
2023-04-08T20:09:05.842Z,9.30
2023-04-08T20:11:38.242Z,10.55
2023-04-08T20:14:10.453Z,10.13
2023-04-08T20:16:46.331Z,10.68
2023-04-08T20:19:35.467Z,9.52
2023-04-08T20:22:11.741Z,10.10
2023-04-08T20:24:52.870Z,10.20
2023-04-08T20:27:32.900Z,10.32
2023-04-08T20:30:10.456Z,10.40
2023-04-08T20:37:18.323Z,9.82
2023-04-08T20:40:01.718Z,10.70
2023-04-08T20:42:56.477Z,9.80
2023-04-08T20:45:34.490Z,11.10
2023-04-08T20:48:22.625Z,10.93
2023-04-08T20:50:57.043Z,10.93
2023-04-08T20:53:35.492Z,11.60
2023-04-08T20:56:07.991Z,10.65
2023-04-08T20:58:40.780Z,10.63
2023-04-08T21:01:12.989Z,10.80
2023-04-08T21:03:45.181Z,11.35
2023-04-08T21:06:21.790Z,11.10
2023-04-08T21:08:54.650Z,9.60
2023-04-08T21:11:28.435Z,10.88
2023-04-08T21:14:01.090Z,11.90
2023-04-08T21:16:34.070Z,11.57
2023-04-08T21:19:06.706Z,11.25
2023-04-08T21:21:38.911Z,13.00
2023-04-08T21:24:11.279Z,11.55
2023-04-08T21:26:43.735Z,11.35
2023-04-08T21:29:16.648Z,11.50
2023-04-08T21:31:48.846Z,11.50
2023-04-08T21:34:21.050Z,11.38
2023-04-08T21:36:53.160Z,11.25
2023-04-08T21:39:25.375Z,11.40
2023-04-08T21:41:57.938Z,11.45
2023-04-08T21:44:30.199Z,13.00
2023-04-08T21:47:02.485Z,12.50
2023-04-08T21:49:34.708Z,12.32
2023-04-08T21:52:07.389Z,11.50
2023-04-08T21:54:39.849Z,12.77
2023-04-08T21:57:12.335Z,13.05
2023-04-08T21:59:44.745Z,12.05
2023-04-08T22:02:17.109Z,12.40
2023-04-08T22:04:49.668Z,12.25
2023-04-08T22:07:22.835Z,12.55
2023-04-08T22:09:54.975Z,13.55
2023-04-08T22:12:27.188Z,12.00
2023-04-08T22:14:59.302Z,12.57
2023-04-08T22:17:31.738Z,11.82
2023-04-08T22:20:04.406Z,12.77
2023-04-08T22:22:37.513Z,13.23
2023-04-08T22:25:10.641Z,12.55
2023-04-08T22:27:42.826Z,12.10
2023-04-08T22:30:15.425Z,13.20
2023-04-08T22:32:48.035Z,13.93
2023-04-08T22:35:20.341Z,11.52
2023-04-08T22:37:52.521Z,11.90
2023-04-08T22:40:24.676Z,12.15
2023-04-08T22:42:57.081Z,13.32
2023-04-08T22:45:29.327Z,12.68
2023-04-08T22:48:01.736Z,12.98
2023-04-08T22:50:34.150Z,12.50
2023-04-08T22:53:06.721Z,12.38
2023-04-08T22:55:38.941Z,12.85
2023-04-08T22:58:11.314Z,12.80
2023-04-08T23:00:43.709Z,12.52
2023-04-08T23:03:16.224Z,12.45
2023-04-08T23:05:48.405Z,12.52
2023-04-08T23:08:20.891Z,12.55
2023-04-08T23:10:53.053Z,13.60
2023-04-08T23:13:26.914Z,13.70
2023-04-08T23:15:59.405Z,13.45
2023-04-08T23:18:32.236Z,13.07
2023-04-08T23:21:04.627Z,13.15
2023-04-08T23:23:37.608Z,14.10
2023-04-08T23:26:17.692Z,14.32
2023-04-08T23:28:50.630Z,13.90
2023-04-08T23:31:23.130Z,13.25
2023-04-08T23:33:55.645Z,13.30
2023-04-08T23:36:27.858Z,15.15
2023-04-08T23:38:59.921Z,13.32
2023-04-08T23:41:32.201Z,14.30
2023-04-08T23:44:04.464Z,13.30
2023-04-08T23:46:36.764Z,13.90
2023-04-08T23:49:09.093Z,14.07
2023-04-08T23:51:41.472Z,14.00
2023-04-08T23:54:13.974Z,13.52
2023-04-08T23:56:46.459Z,13.68
2023-04-08T23:59:19.104Z,13.20
